createdAt,value
2018-05-14T00:01:25.608Z,10.60
2018-05-14T00:03:54.627Z,10.37
2018-05-14T00:06:23.631Z,10.73
2018-05-14T00:08:52.649Z,9.83
2018-05-14T00:11:20.900Z,10.73
2018-05-14T00:13:49.150Z,12.13
2018-05-14T00:16:17.447Z,11.10
2018-05-14T00:18:45.709Z,11.93
2018-05-14T00:21:13.951Z,11.90
2018-05-14T00:23:42.209Z,11.97
2018-05-14T00:26:10.449Z,12.27
2018-05-14T00:28:39.483Z,11.50
2018-05-14T00:31:07.723Z,13.37
2018-05-14T00:33:35.982Z,13.20
2018-05-14T00:36:04.252Z,12.53
2018-05-14T00:38:32.520Z,12.63
2018-05-14T00:41:02.285Z,12.67
2018-05-14T00:43:30.539Z,14.50
2018-05-14T00:45:58.787Z,14.17
2018-05-14T00:48:27.041Z,15.17
2018-05-14T00:50:55.278Z,14.73
2018-05-14T00:53:23.533Z,15.73
2018-05-14T00:55:51.771Z,16.13
2018-05-14T00:58:20.795Z,14.93
2018-05-14T01:00:49.051Z,16.23
2018-05-14T01:03:17.323Z,15.60
2018-05-14T01:05:45.563Z,15.77
2018-05-14T01:08:13.810Z,17.17
2018-05-14T01:10:42.071Z,16.70
2018-05-14T01:13:10.316Z,16.53
2018-05-14T01:15:39.332Z,17.33
2018-05-14T01:18:07.624Z,16.50
2018-05-14T01:20:35.875Z,17.00
2018-05-14T01:23:04.127Z,17.10
2018-05-14T01:25:32.462Z,17.00
2018-05-14T01:28:00.777Z,15.90
2018-05-14T01:30:29.056Z,17.60
2018-05-14T01:32:58.075Z,17.03
2018-05-14T01:35:26.348Z,17.20
2018-05-14T01:37:55.367Z,16.97
2018-05-14T01:40:23.624Z,16.60
2018-05-14T01:42:51.869Z,15.93
2018-05-14T01:45:20.131Z,16.10
2018-05-14T01:47:49.146Z,15.53
2018-05-14T01:50:17.411Z,14.27
2018-05-14T01:52:46.418Z,13.97
2018-05-14T01:55:15.814Z,14.10
2018-05-14T01:57:44.087Z,14.60
2018-05-14T02:00:12.341Z,13.63
2018-05-14T02:02:40.586Z,13.33
2018-05-14T02:05:08.847Z,12.60
2018-05-14T02:07:37.099Z,12.13
2018-05-14T02:10:05.362Z,13.03
2018-05-14T02:12:34.415Z,13.53
2018-05-14T02:15:02.691Z,13.47
2018-05-14T02:17:30.960Z,12.67
2018-05-14T02:19:59.996Z,12.93
2018-05-14T02:22:28.239Z,12.70
2018-05-14T02:24:57.268Z,12.80
2018-05-14T02:27:26.271Z,12.20
2018-05-14T02:29:54.534Z,12.70
2018-05-14T02:32:22.775Z,11.73
2018-05-14T02:34:51.043Z,10.87
2018-05-14T02:37:19.306Z,12.30
2018-05-14T02:39:47.565Z,11.13
2018-05-14T02:42:15.811Z,11.97
2018-05-14T02:44:44.077Z,11.40
2018-05-14T02:47:13.074Z,10.80
2018-05-14T02:49:41.344Z,11.17
2018-05-14T02:52:09.585Z,10.67
2018-05-14T02:54:37.826Z,10.10
2018-05-14T02:57:06.083Z,10.43
2018-05-14T02:59:34.340Z,10.67
2018-05-14T03:02:03.371Z,10.00
2018-05-14T03:04:31.618Z,10.57
2018-05-14T03:06:59.872Z,9.50
2018-05-14T03:09:28.112Z,8.47
2018-05-14T03:11:57.160Z,9.00
2018-05-14T03:14:25.386Z,9.53
2018-05-14T03:16:54.411Z,8.63
2018-05-14T03:19:23.415Z,8.67
2018-05-14T03:21:52.438Z,8.57
2018-05-14T03:24:20.663Z,8.97
2018-05-14T03:26:49.591Z,8.47
2018-05-14T03:29:17.884Z,8.23
2018-05-14T03:31:46.082Z,8.50
2018-05-14T03:34:15.122Z,9.17
2018-05-14T03:36:43.371Z,8.47
2018-05-14T03:39:11.611Z,8.83
2018-05-14T03:41:39.878Z,8.23
2018-05-14T03:44:08.131Z,8.77
2018-05-14T03:46:36.387Z,9.07
2018-05-14T03:49:04.619Z,8.47
2018-05-14T03:51:32.894Z,8.33
2018-05-14T03:54:01.916Z,8.77
2018-05-14T03:56:30.951Z,8.33
2018-05-14T03:59:16.948Z,7.23
2018-05-14T04:02:13.726Z,7.37
2018-05-14T04:04:59.768Z,7.00
2018-05-14T04:07:28.020Z,5.97
2018-05-14T04:09:56.261Z,6.83
2018-05-14T04:12:24.525Z,6.53
2018-05-14T04:14:52.748Z,6.00
2018-05-14T04:17:21.779Z,6.30
2018-05-14T04:19:50.019Z,6.67
2018-05-14T04:22:18.281Z,6.23
2018-05-14T04:24:46.519Z,6.83
2018-05-14T04:27:15.563Z,6.20
2018-05-14T04:29:43.821Z,6.20
2018-05-14T04:32:12.116Z,6.03
2018-05-14T04:34:41.110Z,6.50
2018-05-14T04:37:10.240Z,6.50
2018-05-14T04:39:39.356Z,6.03
2018-05-14T04:42:08.451Z,5.67
2018-05-14T04:44:37.459Z,6.70
2018-05-14T04:47:06.483Z,5.77
2018-05-14T04:49:34.732Z,6.27
2018-05-14T04:52:03.043Z,5.80
2018-05-14T04:54:32.055Z,5.87
2018-05-14T04:57:01.091Z,6.17
2018-05-14T04:59:29.362Z,6.70
2018-05-14T05:01:57.615Z,6.90
2018-05-14T05:04:27.359Z,7.03
2018-05-14T05:06:56.456Z,7.40
2018-05-14T05:09:24.607Z,6.90
2018-05-14T05:11:52.863Z,6.80
2018-05-14T05:14:21.099Z,6.47
2018-05-14T05:16:49.354Z,7.13
2018-05-14T05:19:17.600Z,6.40
2018-05-14T05:21:46.619Z,7.23
2018-05-14T05:24:14.867Z,6.93
2018-05-14T05:26:43.118Z,5.90
2018-05-14T05:29:11.383Z,6.07
2018-05-14T05:31:40.415Z,6.17
2018-05-14T05:34:08.643Z,6.63
2018-05-14T05:36:36.971Z,6.50
2018-05-14T05:39:05.975Z,7.23
2018-05-14T05:41:35.075Z,6.00
2018-05-14T05:44:04.109Z,5.80
2018-05-14T05:46:32.346Z,6.30
2018-05-14T05:49:01.450Z,6.07
2018-05-14T05:51:29.771Z,6.83
2018-05-14T05:53:58.791Z,6.13
2018-05-14T05:56:27.023Z,5.80
2018-05-14T05:58:55.280Z,5.53
2018-05-14T06:01:24.386Z,5.83
2018-05-14T06:03:52.648Z,5.53
2018-05-14T06:06:21.649Z,6.30
2018-05-14T06:08:49.944Z,5.30
2018-05-14T06:11:18.954Z,5.50
2018-05-14T06:13:48.013Z,4.87
2018-05-14T06:16:16.242Z,5.43
2018-05-14T06:18:45.259Z,5.20
2018-05-14T06:21:14.270Z,5.97
2018-05-14T06:23:43.294Z,5.70
2018-05-14T06:26:11.522Z,5.27
2018-05-14T06:28:39.777Z,5.20
2018-05-14T06:31:08.024Z,6.20
2018-05-14T06:33:36.275Z,5.70
2018-05-14T06:36:04.603Z,5.07
2018-05-14T06:38:33.614Z,6.13
2018-05-14T06:41:03.212Z,5.83
2018-05-14T06:43:31.539Z,5.57
2018-05-14T06:45:59.780Z,5.40
2018-05-14T06:48:28.040Z,5.80
2018-05-14T06:50:56.275Z,5.43
2018-05-14T06:53:24.582Z,5.67
2018-05-14T06:55:53.691Z,5.73
2018-05-14T06:58:23.465Z,6.30
2018-05-14T07:00:51.694Z,5.93
2018-05-14T07:03:19.995Z,6.07
2018-05-14T07:05:49.003Z,5.53
2018-05-14T07:08:18.031Z,5.40
2018-05-14T07:10:46.315Z,5.73
2018-05-14T07:13:14.571Z,5.73
2018-05-14T07:15:44.159Z,5.00
2018-05-14T07:18:12.419Z,5.47
2018-05-14T07:20:41.427Z,5.13
2018-05-14T07:23:09.679Z,5.10
2018-05-14T07:25:37.919Z,5.60
2018-05-14T07:28:06.172Z,5.33
2018-05-14T07:30:35.190Z,5.27
2018-05-14T07:33:03.448Z,5.33
2018-05-14T07:35:31.684Z,5.40
2018-05-14T07:37:59.946Z,5.77
2018-05-14T07:40:29.758Z,5.17
2018-05-14T07:42:57.967Z,5.17
2018-05-14T07:45:26.210Z,5.07
2018-05-14T07:47:54.531Z,5.43
2018-05-14T07:50:24.138Z,6.03
2018-05-14T07:52:53.563Z,4.90
2018-05-14T07:55:22.586Z,5.17
2018-05-14T07:57:50.930Z,6.53
2018-05-14T08:00:19.964Z,6.00
2018-05-14T08:02:48.131Z,6.27
2018-05-14T08:05:16.443Z,6.03
2018-05-14T08:07:45.442Z,5.77
2018-05-14T08:10:13.698Z,6.23
2018-05-14T08:12:41.954Z,6.47
2018-05-14T08:15:10.211Z,6.47
2018-05-14T08:17:39.237Z,6.70
2018-05-14T08:20:08.846Z,6.67
2018-05-14T08:22:37.851Z,6.07
2018-05-14T08:25:06.106Z,6.33
2018-05-14T08:27:34.353Z,6.57
2018-05-14T08:30:02.650Z,6.67
2018-05-14T08:32:30.892Z,7.47
2018-05-14T08:34:59.165Z,7.37
2018-05-14T08:37:27.426Z,7.37
2018-05-14T08:39:55.667Z,6.77
2018-05-14T08:42:23.966Z,7.47
2018-05-14T08:44:52.990Z,7.13
2018-05-14T08:47:21.996Z,7.43
2018-05-14T08:49:50.261Z,7.60
2018-05-14T08:52:18.496Z,8.00
2018-05-14T08:54:46.784Z,8.30
2018-05-14T08:57:15.750Z,8.50
2018-05-14T08:59:43.998Z,8.80
2018-05-14T09:02:12.244Z,8.73
2018-05-14T09:04:41.260Z,9.07
2018-05-14T09:07:09.503Z,9.70
2018-05-14T09:09:37.758Z,9.33
2018-05-14T09:12:05.997Z,9.17
2018-05-14T09:14:34.272Z,11.27
2018-05-14T09:17:02.525Z,9.83
2018-05-14T09:19:30.922Z,10.97
2018-05-14T09:21:59.871Z,10.00
2018-05-14T09:24:28.131Z,12.67
2018-05-14T09:26:56.378Z,11.00
2018-05-14T09:29:24.652Z,11.70
2018-05-14T09:31:52.947Z,12.07
2018-05-14T09:34:22.724Z,12.57
2018-05-14T09:36:50.967Z,11.63
2018-05-14T09:39:19.198Z,10.90
2018-05-14T09:41:47.456Z,11.77
2018-05-14T09:44:15.703Z,12.53
2018-05-14T09:46:44.728Z,13.10
2018-05-14T09:49:14.482Z,12.50
2018-05-14T09:51:42.741Z,13.07
2018-05-14T09:54:12.496Z,13.17
2018-05-14T09:56:40.746Z,12.43
2018-05-14T09:59:09.761Z,11.63
2018-05-14T10:01:38.042Z,13.70
2018-05-14T10:04:07.049Z,13.37
2018-05-14T10:06:36.077Z,13.33
2018-05-14T10:09:04.322Z,13.43
2018-05-14T10:11:34.173Z,11.57
2018-05-14T10:14:03.184Z,12.33
2018-05-14T10:16:31.457Z,13.13
2018-05-14T10:19:00.468Z,12.03
2018-05-14T10:21:29.492Z,14.20
2018-05-14T10:23:57.762Z,12.27
2018-05-14T10:26:26.876Z,12.60
2018-05-14T10:28:55.888Z,12.80
2018-05-14T10:31:24.987Z,12.10
2018-05-14T10:33:53.233Z,13.10
2018-05-14T10:36:21.515Z,12.80
2018-05-14T10:38:49.751Z,12.97
2018-05-14T10:41:18.798Z,12.57
2018-05-14T10:43:47.047Z,12.57
2018-05-14T10:46:16.157Z,13.53
2018-05-14T10:48:45.917Z,11.37
2018-05-14T10:51:14.163Z,12.60
2018-05-14T10:53:43.180Z,12.37
2018-05-14T10:56:12.207Z,11.90
2018-05-14T10:58:40.500Z,11.87
2018-05-14T11:01:08.702Z,10.60
2018-05-14T11:03:36.955Z,12.30
2018-05-14T11:06:05.975Z,11.17
2018-05-14T11:08:34.975Z,11.20
2018-05-14T11:11:03.271Z,12.03
2018-05-14T11:13:32.272Z,11.40
2018-05-14T11:16:00.536Z,12.00
2018-05-14T11:18:28.779Z,11.73
2018-05-14T11:20:57.042Z,11.80
2018-05-14T11:23:25.278Z,12.83
2018-05-14T11:25:54.317Z,12.40
2018-05-14T11:28:23.318Z,12.17
2018-05-14T11:30:52.335Z,11.17
2018-05-14T11:33:22.098Z,11.70
2018-05-14T11:35:50.351Z,11.40
2018-05-14T11:38:19.358Z,11.60
2018-05-14T11:40:48.385Z,11.70
2018-05-14T11:43:16.641Z,11.47
2018-05-14T11:45:45.643Z,11.33
2018-05-14T11:48:13.900Z,11.67
2018-05-14T11:50:42.248Z,11.90
2018-05-14T11:53:11.263Z,11.70
2018-05-14T11:55:39.501Z,11.83
2018-05-14T11:58:07.759Z,11.83
2018-05-14T12:00:36.008Z,12.23
2018-05-14T12:03:05.073Z,12.37
2018-05-14T12:05:33.275Z,11.47
2018-05-14T12:08:02.307Z,11.63
2018-05-14T12:10:32.083Z,11.77
2018-05-14T12:13:00.342Z,11.30
2018-05-14T12:15:28.616Z,11.50
2018-05-14T12:17:57.651Z,12.40
2018-05-14T12:20:25.887Z,14.30
2018-05-14T12:22:54.131Z,13.37
2018-05-14T12:25:22.383Z,14.40
2018-05-14T12:27:52.147Z,14.73
2018-05-14T12:30:20.405Z,15.07
2018-05-14T12:32:49.423Z,15.07
2018-05-14T12:35:17.721Z,14.90
2018-05-14T12:37:45.975Z,14.87
2018-05-14T12:40:14.987Z,16.53
2018-05-14T12:42:44.007Z,15.77
2018-05-14T12:45:12.250Z,15.03
2018-05-14T12:47:40.531Z,15.63
2018-05-14T12:50:08.767Z,16.20
2018-05-14T12:52:37.059Z,15.07
2018-05-14T12:55:06.156Z,14.73
2018-05-14T12:57:35.179Z,16.87
2018-05-14T13:00:03.429Z,16.80
2018-05-14T13:02:32.456Z,16.37
2018-05-14T13:05:01.435Z,16.53
2018-05-14T13:07:30.493Z,16.57
2018-05-14T13:09:58.804Z,15.70
2018-05-14T13:12:27.253Z,15.43
2018-05-14T13:14:56.269Z,14.10
2018-05-14T13:17:24.577Z,16.13
2018-05-14T13:19:52.816Z,15.97
2018-05-14T13:22:21.111Z,14.63
2018-05-14T13:24:49.412Z,16.00
2018-05-14T13:27:18.454Z,15.07
2018-05-14T13:29:46.711Z,15.53
2018-05-14T13:32:15.699Z,16.77
2018-05-14T13:34:43.988Z,15.53
2018-05-14T13:37:12.243Z,16.17
2018-05-14T13:39:40.490Z,14.37
2018-05-14T13:42:09.539Z,14.87
2018-05-14T13:44:37.828Z,15.00
2018-05-14T13:47:06.787Z,15.13
2018-05-14T13:49:35.824Z,14.00
2018-05-14T13:52:04.112Z,16.10
2018-05-14T13:54:32.379Z,14.13
2018-05-14T13:57:00.622Z,15.53
2018-05-14T13:59:29.682Z,15.37
2018-05-14T14:01:58.656Z,14.50
2018-05-14T14:04:26.953Z,14.67
2018-05-14T14:06:55.967Z,15.30
2018-05-14T14:09:24.989Z,16.30
2018-05-14T14:11:54.011Z,15.70
2018-05-14T14:14:22.270Z,15.57
2018-05-14T14:16:51.283Z,14.87
2018-05-14T14:19:20.268Z,16.07
2018-05-14T14:21:48.555Z,17.07
2018-05-14T14:24:16.919Z,17.60
2018-05-14T14:26:45.836Z,17.90
2018-05-14T14:29:14.061Z,16.33
2018-05-14T14:31:42.340Z,17.40
2018-05-14T14:34:12.116Z,17.60
2018-05-14T14:36:40.356Z,16.57
2018-05-14T14:39:09.343Z,17.10
2018-05-14T14:41:37.622Z,17.80
2018-05-14T14:44:05.883Z,17.23
2018-05-14T14:46:34.131Z,17.53
2018-05-14T14:49:03.238Z,17.37
2018-05-14T14:51:31.410Z,17.63
2018-05-14T14:53:59.633Z,18.43
2018-05-14T14:56:28.671Z,17.30
2018-05-14T14:58:56.935Z,18.17
2018-05-14T15:01:25.188Z,17.17
2018-05-14T15:03:54.247Z,19.57
2018-05-14T15:06:22.492Z,19.33
2018-05-14T15:08:51.515Z,20.43
2018-05-14T15:11:19.724Z,19.70
2018-05-14T15:13:48.023Z,19.47
2018-05-14T15:16:16.280Z,19.93
2018-05-14T15:18:44.535Z,18.07
2018-05-14T15:21:12.774Z,19.67
2018-05-14T15:23:41.032Z,20.00
2018-05-14T15:26:10.034Z,19.13
2018-05-14T15:28:39.067Z,19.57
2018-05-14T15:31:07.310Z,19.93
2018-05-14T15:33:35.571Z,19.33
2018-05-14T15:36:03.854Z,21.60
2018-05-14T15:38:32.126Z,20.20
2018-05-14T15:41:00.367Z,19.23
2018-05-14T15:43:28.635Z,20.87
2018-05-14T15:45:56.844Z,21.23
2018-05-14T15:48:25.139Z,21.23
2018-05-14T15:50:53.402Z,22.53
2018-05-14T15:53:21.596Z,23.90
2018-05-14T15:55:50.612Z,24.17
2018-05-14T15:58:18.906Z,22.47
2018-05-14T16:00:47.163Z,23.17
2018-05-14T16:03:15.403Z,23.13
2018-05-14T16:05:44.423Z,24.40
2018-05-14T16:08:12.686Z,22.07
2018-05-14T16:10:42.111Z,22.87
2018-05-14T16:13:11.235Z,22.57
2018-05-14T16:15:39.498Z,21.87
2018-05-14T16:18:07.741Z,22.40
2018-05-14T16:20:36.009Z,24.90
2018-05-14T16:23:04.283Z,24.30
2018-05-14T16:25:33.317Z,24.77
2018-05-14T16:28:01.587Z,26.07
2018-05-14T16:30:30.621Z,24.53
2018-05-14T16:32:59.635Z,25.23
2018-05-14T16:35:27.979Z,25.57
2018-05-14T16:37:57.807Z,27.23
2018-05-14T16:40:27.245Z,26.43
2018-05-14T16:42:55.483Z,26.17
2018-05-14T16:45:23.762Z,26.63
2018-05-14T16:47:52.771Z,28.83
2018-05-14T16:50:21.082Z,29.83
2018-05-14T16:52:49.389Z,29.27
2018-05-14T16:55:18.782Z,29.93
2018-05-14T16:57:47.057Z,31.33
2018-05-14T17:00:15.250Z,30.37
2018-05-14T17:02:44.345Z,29.87
2018-05-14T17:05:13.408Z,31.23
2018-05-14T17:07:41.654Z,29.37
2018-05-14T17:10:09.961Z,30.37
2018-05-14T17:12:38.983Z,32.23
2018-05-14T17:15:08.004Z,30.67
2018-05-14T17:17:36.257Z,31.93
2018-05-14T17:20:04.534Z,31.63
2018-05-14T17:22:32.780Z,31.70
2018-05-14T17:25:01.057Z,31.90
2018-05-14T17:27:29.332Z,31.77
2018-05-14T17:29:58.435Z,30.97
2018-05-14T17:32:28.246Z,29.33
2018-05-14T17:34:56.543Z,28.33
2018-05-14T17:37:25.551Z,28.47
2018-05-14T17:39:54.574Z,27.50
2018-05-14T17:42:22.849Z,27.27
2018-05-14T17:44:51.963Z,27.77
2018-05-14T17:47:21.075Z,26.07
2018-05-14T17:49:50.065Z,26.73
2018-05-14T17:52:18.322Z,26.53
2018-05-14T17:54:47.384Z,27.27
2018-05-14T17:57:16.478Z,27.20
2018-05-14T17:59:45.511Z,25.77
2018-05-14T18:02:13.788Z,26.90
2018-05-14T18:04:42.000Z,26.00
2018-05-14T18:07:10.306Z,25.93
2018-05-14T18:09:38.646Z,25.23
2018-05-14T18:12:07.673Z,24.50
2018-05-14T18:14:35.885Z,24.67
2018-05-14T18:17:04.183Z,25.43
2018-05-14T18:19:37.891Z,25.03
2018-05-14T18:22:11.621Z,26.07
2018-05-14T18:27:45.231Z,24.73
2018-05-14T18:30:13.474Z,24.40
2018-05-14T18:35:43.933Z,23.90
2018-05-14T18:38:12.171Z,25.40
2018-05-14T18:40:41.221Z,23.87
2018-05-14T18:43:09.502Z,25.07
2018-05-14T18:45:37.745Z,24.00
2018-05-14T18:48:06.776Z,26.23
2018-05-14T18:50:35.060Z,23.50
2018-05-14T18:53:03.298Z,24.73
2018-05-14T18:55:32.354Z,24.97
2018-05-14T18:58:01.383Z,25.40
2018-05-14T19:00:29.596Z,26.93
2018-05-14T19:02:58.677Z,25.20
2018-05-14T19:05:26.943Z,25.63
2018-05-14T19:07:55.982Z,26.67
2018-05-14T19:10:29.884Z,25.60
2018-05-14T19:12:58.147Z,25.77
2018-05-14T19:15:32.778Z,27.10
2018-05-14T19:18:01.826Z,25.60
2018-05-14T19:20:30.062Z,26.17
2018-05-14T19:23:05.518Z,25.57
2018-05-14T19:25:33.893Z,26.13
2018-05-14T19:28:07.700Z,25.77
2018-05-14T19:30:36.762Z,25.73
2018-05-14T19:33:05.810Z,26.33
2018-05-14T19:35:39.607Z,25.73
2018-05-14T19:38:08.636Z,26.90
2018-05-14T19:40:42.488Z,26.70
2018-05-14T19:43:10.756Z,30.03
2018-05-14T19:45:39.095Z,29.33
2018-05-14T19:48:08.133Z,30.73
2018-05-14T19:50:36.390Z,30.30
2018-05-14T19:53:05.380Z,28.60
2018-05-14T19:55:33.666Z,29.20
2018-05-14T19:58:02.003Z,29.57
2018-05-14T20:00:30.272Z,28.17
2018-05-14T20:02:59.295Z,28.20
2018-05-14T20:05:27.563Z,27.60
2018-05-14T20:07:56.607Z,29.40
2018-05-14T20:10:24.866Z,28.27
2018-05-14T20:12:53.933Z,27.13
2018-05-14T20:15:22.191Z,26.97
2018-05-14T20:17:50.456Z,27.50
2018-05-14T20:20:19.471Z,28.67
2018-05-14T20:22:47.729Z,26.97
2018-05-14T20:25:16.759Z,27.17
2018-05-14T20:27:46.574Z,27.47
2018-05-14T20:30:15.723Z,26.47
2018-05-14T20:32:44.088Z,27.40
2018-05-14T20:35:12.363Z,29.77
2018-05-14T20:37:41.359Z,29.13
2018-05-14T20:40:09.639Z,26.97
2018-05-14T20:42:37.912Z,28.37
2018-05-14T20:45:06.229Z,30.53
2018-05-14T20:47:34.449Z,27.10
2018-05-14T20:50:02.823Z,28.43
2018-05-14T20:52:31.115Z,29.23
2018-05-14T20:54:59.398Z,26.60
2018-05-14T20:57:28.402Z,25.70
2018-05-14T20:59:57.393Z,27.50
2018-05-14T21:02:25.679Z,26.10
2018-05-14T21:04:54.742Z,28.33
2018-05-14T21:07:23.031Z,27.63
2018-05-14T21:09:51.307Z,26.60
2018-05-14T21:12:19.599Z,28.73
2018-05-14T21:14:47.890Z,26.87
2018-05-14T21:17:16.127Z,26.70
2018-05-14T21:19:44.408Z,26.60
2018-05-14T21:22:12.619Z,25.97
2018-05-14T21:24:41.022Z,25.83
2018-05-14T21:27:10.618Z,25.53
2018-05-14T21:29:38.879Z,24.27
2018-05-14T21:32:07.159Z,25.20
2018-05-14T21:34:35.525Z,26.07
2018-05-14T21:37:03.859Z,26.07
2018-05-14T21:39:32.189Z,25.90
2018-05-14T21:42:01.253Z,25.07
2018-05-14T21:44:29.514Z,27.03
2018-05-14T21:46:57.775Z,25.90
2018-05-14T21:49:26.821Z,24.37
2018-05-14T21:51:55.075Z,26.27
2018-05-14T21:54:24.187Z,24.50
2018-05-14T21:56:52.468Z,25.70
2018-05-14T21:59:21.458Z,25.57
2018-05-14T22:01:49.772Z,25.50
2018-05-14T22:04:18.777Z,26.50
2018-05-14T22:06:47.064Z,25.43
2018-05-14T22:09:16.094Z,27.23
2018-05-14T22:11:44.366Z,25.63
2018-05-14T22:14:12.652Z,25.00
2018-05-14T22:16:41.635Z,24.20
2018-05-14T22:19:09.964Z,25.77
2018-05-14T22:21:38.242Z,24.70
2018-05-14T22:24:07.279Z,23.13
2018-05-14T22:26:35.645Z,25.23
2018-05-14T22:29:05.012Z,43.17
2018-05-14T22:31:33.278Z,30.27
2018-05-14T22:34:01.554Z,23.03
2018-05-14T22:36:29.934Z,23.80
2018-05-14T22:38:58.175Z,25.53
2018-05-14T22:41:27.217Z,25.00
2018-05-14T22:43:56.655Z,24.30
2018-05-14T22:46:24.931Z,24.93
2018-05-14T22:48:53.251Z,25.13
2018-05-14T22:51:21.521Z,25.20
2018-05-14T22:53:49.767Z,26.60
2018-05-14T22:56:18.077Z,26.90
2018-05-14T22:58:47.086Z,25.60
2018-05-14T23:01:16.118Z,26.93
2018-05-14T23:03:44.360Z,27.00
2018-05-14T23:06:12.654Z,27.27
2018-05-14T23:08:41.664Z,27.47
2018-05-14T23:11:10.767Z,26.40
2018-05-14T23:13:39.751Z,27.23
2018-05-14T23:16:08.820Z,26.27
2018-05-14T23:18:37.051Z,27.43
2018-05-14T23:21:06.119Z,26.87
2018-05-14T23:23:34.383Z,26.07
2018-05-14T23:26:03.418Z,26.30
2018-05-14T23:28:31.903Z,27.00
2018-05-14T23:31:00.172Z,24.90
2018-05-14T23:33:29.233Z,24.20
2018-05-14T23:35:57.447Z,25.10
2018-05-14T23:38:26.567Z,24.80
2018-05-14T23:40:55.600Z,26.00
2018-05-14T23:43:23.862Z,26.00
2018-05-14T23:45:53.071Z,25.67
2018-05-14T23:48:21.985Z,25.27
2018-05-14T23:50:51.009Z,25.20
2018-05-14T23:53:19.251Z,24.23
2018-05-14T23:55:48.304Z,24.40
2018-05-14T23:58:16.544Z,23.53
